createdAt,value
2023-03-27T00:01:37.640Z,1.90
2023-03-27T00:03:43.034Z,1.88
2023-03-27T00:05:47.954Z,1.92
2023-03-27T00:07:55.840Z,1.77
2023-03-27T00:10:01.983Z,1.70
2023-03-27T00:12:07.529Z,1.55
2023-03-27T00:14:12.843Z,1.73
2023-03-27T00:16:20.362Z,1.80
2023-03-27T00:18:25.065Z,1.48
2023-03-27T00:20:30.403Z,1.80
2023-03-27T00:22:36.169Z,2.20
2023-03-27T00:24:44.046Z,1.60
2023-03-27T00:26:52.291Z,1.48
2023-03-27T00:28:57.352Z,1.90
2023-03-27T00:31:02.213Z,1.50
2023-03-27T00:33:11.983Z,1.58
2023-03-27T00:35:17.696Z,1.58
2023-03-27T00:37:22.442Z,1.90
2023-03-27T00:39:28.522Z,2.03
2023-03-27T00:41:34.264Z,2.03
2023-03-27T00:43:44.267Z,1.83
2023-03-27T00:45:51.112Z,1.90
2023-03-27T00:47:59.625Z,2.65
2023-03-27T00:50:11.679Z,2.08
2023-03-27T00:52:17.081Z,1.80
2023-03-27T00:54:30.211Z,1.90
2023-03-27T00:58:47.941Z,2.42
2023-03-27T01:00:56.258Z,1.70
2023-03-27T01:03:02.093Z,2.03
2023-03-27T01:05:10.629Z,2.55
2023-03-27T01:07:16.260Z,1.48
2023-03-27T01:09:21.756Z,1.90
2023-03-27T01:11:39.633Z,2.47
2023-03-27T01:13:57.684Z,2.10
2023-03-27T01:16:08.984Z,2.03
2023-03-27T01:18:26.566Z,2.13
2023-03-27T01:20:59.978Z,2.22
2023-03-27T01:23:59.464Z,1.90
2023-03-27T01:26:35.551Z,2.35
2023-03-27T01:28:54.987Z,2.15
2023-03-27T01:31:06.350Z,1.80
2023-03-27T01:33:56.424Z,1.92
2023-03-27T01:36:46.283Z,2.10
2023-03-27T01:39:32.473Z,2.20
2023-03-27T01:41:45.979Z,2.30
2023-03-27T01:43:56.202Z,1.92
2023-03-27T01:46:10.152Z,2.38
2023-03-27T01:48:19.894Z,1.90
2023-03-27T01:50:32.378Z,1.50
2023-03-27T01:52:41.935Z,1.70
2023-03-27T01:54:55.990Z,1.83
2023-03-27T01:57:10.692Z,1.58
2023-03-27T01:59:19.228Z,1.42
2023-03-27T02:01:30.082Z,1.50
2023-03-27T02:03:42.419Z,1.40
2023-03-27T02:05:51.653Z,1.60
2023-03-27T02:08:02.601Z,1.35
2023-03-27T02:10:14.427Z,2.55
2023-03-27T02:12:29.192Z,1.70
2023-03-27T02:14:39.939Z,1.60
2023-03-27T02:16:50.498Z,1.45
2023-03-27T02:19:00.892Z,2.30
2023-03-27T02:21:06.418Z,1.80
2023-03-27T02:23:11.922Z,1.95
2023-03-27T02:25:35.813Z,1.55
2023-03-27T02:27:48.028Z,1.25
2023-03-27T02:30:03.193Z,1.50
2023-03-27T02:32:19.990Z,1.52
2023-03-27T02:34:46.569Z,1.25
2023-03-27T02:37:02.307Z,1.40
2023-03-27T02:39:16.100Z,1.40
2023-03-27T02:41:25.334Z,1.30
2023-03-27T02:43:37.123Z,1.00
2023-03-27T02:45:53.641Z,1.25
2023-03-27T02:48:03.276Z,1.33
2023-03-27T02:50:13.001Z,1.08
2023-03-27T02:52:22.617Z,1.63
2023-03-27T02:54:32.605Z,1.48
2023-03-27T02:56:43.770Z,1.30
2023-03-27T02:58:57.419Z,1.15
2023-03-27T03:01:03.985Z,1.10
2023-03-27T03:03:14.326Z,1.10
2023-03-27T03:05:24.134Z,1.23
2023-03-27T03:07:29.262Z,1.17
2023-03-27T03:09:34.360Z,1.30
2023-03-27T03:11:50.665Z,1.30
2023-03-27T03:13:58.091Z,1.52
2023-03-27T03:16:03.017Z,1.40
2023-03-27T03:18:09.882Z,1.50
2023-03-27T03:20:16.896Z,1.50
2023-03-27T03:22:21.774Z,1.50
2023-03-27T03:24:27.868Z,2.78
2023-03-27T03:26:33.092Z,2.20
2023-03-27T03:28:38.027Z,2.15
2023-03-27T03:30:46.051Z,1.77
2023-03-27T03:32:50.971Z,1.85
2023-03-27T03:34:57.156Z,1.83
2023-03-27T03:37:02.630Z,1.60
2023-03-27T03:39:08.196Z,1.42
2023-03-27T03:41:13.102Z,1.73
2023-03-27T03:43:17.945Z,1.45
2023-03-27T03:45:23.230Z,2.58
2023-03-27T03:47:33.334Z,1.80
2023-03-27T03:49:38.121Z,1.55
2023-03-27T03:51:42.908Z,1.60
2023-03-27T03:53:47.629Z,1.60
2023-03-27T03:55:55.675Z,1.58
2023-03-27T03:58:00.549Z,1.30
2023-03-27T04:00:12.320Z,1.60
2023-03-27T04:02:28.464Z,1.50
2023-03-27T04:04:36.827Z,2.13
2023-03-27T04:06:43.686Z,1.67
2023-03-27T04:08:49.047Z,1.85
2023-03-27T04:10:53.774Z,1.60
2023-03-27T04:12:59.684Z,1.90
2023-03-27T04:15:04.523Z,1.92
2023-03-27T04:17:10.029Z,1.65
2023-03-27T04:19:18.391Z,1.85
2023-03-27T04:21:26.983Z,2.30
2023-03-27T04:23:34.050Z,2.97
2023-03-27T04:25:38.823Z,2.25
2023-03-27T04:27:44.763Z,2.42
2023-03-27T04:29:49.542Z,2.03
2023-03-27T04:31:55.474Z,2.75
2023-03-27T04:34:00.251Z,2.50
2023-03-27T04:36:07.353Z,2.05
2023-03-27T04:38:15.824Z,3.53
2023-03-27T04:40:20.952Z,2.97
2023-03-27T04:42:25.701Z,3.28
2023-03-27T04:44:30.489Z,3.10
2023-03-27T04:46:38.423Z,2.25
2023-03-27T04:48:43.127Z,2.60
2023-03-27T04:50:49.778Z,2.00
2023-03-27T04:52:58.947Z,2.40
2023-03-27T04:55:08.526Z,2.70
2023-03-27T04:57:16.156Z,2.25
2023-03-27T04:59:21.496Z,1.95
2023-03-27T05:01:28.211Z,2.35
2023-03-27T05:03:35.305Z,2.60
2023-03-27T05:05:40.178Z,2.15
2023-03-27T05:07:48.719Z,2.05
2023-03-27T05:09:53.417Z,1.90
2023-03-27T05:12:00.807Z,2.13
2023-03-27T05:14:05.810Z,2.58
2023-03-27T05:16:14.945Z,1.83
2023-03-27T05:18:19.715Z,2.13
2023-03-27T05:20:24.775Z,2.10
2023-03-27T05:22:29.629Z,2.20
2023-03-27T05:24:34.325Z,2.13
2023-03-27T05:26:42.384Z,2.90
2023-03-27T05:28:51.450Z,2.53
2023-03-27T05:30:57.382Z,2.20
2023-03-27T05:33:02.361Z,1.90
2023-03-27T05:35:07.811Z,2.50
2023-03-27T05:37:12.663Z,1.92
2023-03-27T05:39:17.932Z,2.10
2023-03-27T05:41:23.229Z,3.10
2023-03-27T05:43:30.323Z,2.40
2023-03-27T05:45:38.124Z,3.10
2023-03-27T05:47:50.079Z,2.08
2023-03-27T05:49:57.045Z,2.65
2023-03-27T05:52:02.161Z,2.17
2023-03-27T05:54:07.446Z,2.30
2023-03-27T05:56:12.839Z,2.17
2023-03-27T05:58:18.170Z,2.03
2023-03-27T06:00:26.640Z,2.35
2023-03-27T06:02:34.944Z,2.40
2023-03-27T06:04:42.695Z,3.00
2023-03-27T06:06:47.870Z,2.80
2023-03-27T06:08:53.504Z,3.35
2023-03-27T06:11:00.780Z,2.78
2023-03-27T06:13:08.973Z,3.45
2023-03-27T06:15:18.242Z,3.58
2023-03-27T06:17:22.924Z,3.60
2023-03-27T06:19:32.820Z,3.13
2023-03-27T06:21:39.926Z,4.40
2023-03-27T06:23:46.095Z,3.40
2023-03-27T06:25:51.519Z,3.65
2023-03-27T06:27:56.691Z,2.92
2023-03-27T06:30:01.523Z,3.85
2023-03-27T06:32:06.586Z,2.85
2023-03-27T06:34:15.321Z,3.10
2023-03-27T06:36:22.691Z,3.45
2023-03-27T06:38:29.506Z,2.55
2023-03-27T06:40:35.617Z,2.80
2023-03-27T06:42:43.522Z,3.35
2023-03-27T06:44:48.396Z,2.83
2023-03-27T06:46:53.222Z,2.33
2023-03-27T06:48:58.165Z,3.83
2023-03-27T06:51:03.555Z,2.83
2023-03-27T06:53:26.500Z,2.70
2023-03-27T06:55:34.840Z,1.75
2023-03-27T06:57:45.344Z,2.83
2023-03-27T06:59:50.091Z,2.83
2023-03-27T07:01:55.132Z,2.47
2023-03-27T07:03:59.904Z,2.25
2023-03-27T07:06:04.879Z,2.25
2023-03-27T07:08:23.177Z,2.00
2023-03-27T07:10:29.741Z,1.70
2023-03-27T07:12:34.436Z,2.28
2023-03-27T07:14:39.451Z,1.60
2023-03-27T07:16:45.517Z,2.78
2023-03-27T07:18:50.338Z,1.90
2023-03-27T07:20:55.297Z,1.73
2023-03-27T07:23:01.335Z,1.58
2023-03-27T07:25:09.723Z,1.88
2023-03-27T07:27:14.841Z,1.42
2023-03-27T07:29:19.703Z,1.95
2023-03-27T07:31:41.833Z,1.48
2023-03-27T07:33:49.747Z,1.50
2023-03-27T07:35:54.829Z,1.73
2023-03-27T07:38:01.280Z,1.88
2023-03-27T07:40:13.449Z,1.77
2023-03-27T07:42:18.371Z,1.60
2023-03-27T07:44:23.301Z,1.60
2023-03-27T07:46:28.321Z,1.70
2023-03-27T07:48:33.374Z,2.22
2023-03-27T07:50:38.398Z,2.08
2023-03-27T07:52:44.871Z,1.75
2023-03-27T07:54:49.697Z,2.13
2023-03-27T07:56:57.389Z,1.77
2023-03-27T07:59:02.305Z,1.85
2023-03-27T08:01:07.972Z,1.98
2023-03-27T08:03:17.749Z,2.15
2023-03-27T08:05:23.142Z,2.67
2023-03-27T08:07:27.900Z,2.15
2023-03-27T08:09:32.852Z,1.85
2023-03-27T08:11:37.729Z,1.73
2023-03-27T08:13:46.916Z,1.50
2023-03-27T08:15:51.730Z,1.98
2023-03-27T08:17:57.010Z,1.88
2023-03-27T08:20:09.838Z,1.73
2023-03-27T08:22:14.912Z,1.58
2023-03-27T08:24:19.996Z,1.58
2023-03-27T08:26:25.257Z,1.70
2023-03-27T08:28:30.168Z,1.83
2023-03-27T08:30:37.786Z,1.50
2023-03-27T08:32:42.613Z,2.10
2023-03-27T08:34:47.405Z,1.88
2023-03-27T08:36:52.765Z,1.75
2023-03-27T08:38:58.430Z,1.75
2023-03-27T08:41:05.287Z,1.80
2023-03-27T08:43:19.197Z,1.35
2023-03-27T08:45:29.040Z,1.83
2023-03-27T08:47:43.709Z,2.08
2023-03-27T08:49:53.636Z,1.98
2023-03-27T08:52:02.824Z,1.58
2023-03-27T08:54:11.821Z,1.42
2023-03-27T08:56:17.903Z,1.50
2023-03-27T08:58:24.586Z,1.85
2023-03-27T09:00:40.258Z,1.38
2023-03-27T09:02:54.163Z,1.85
2023-03-27T09:05:04.226Z,1.52
2023-03-27T09:07:14.931Z,1.70
2023-03-27T09:09:34.738Z,1.83
2023-03-27T09:11:52.600Z,2.17
2023-03-27T09:13:57.740Z,2.13
2023-03-27T09:16:08.348Z,1.90
2023-03-27T09:18:22.104Z,2.38
2023-03-27T09:20:32.289Z,1.75
2023-03-27T09:22:45.652Z,2.97
2023-03-27T09:24:54.437Z,1.40
2023-03-27T09:27:07.173Z,1.85
2023-03-27T09:31:29.829Z,1.80
2023-03-27T09:33:41.617Z,1.65
2023-03-27T09:35:48.215Z,1.83
2023-03-27T09:37:58.960Z,1.90
2023-03-27T09:40:04.524Z,1.40
2023-03-27T09:42:17.356Z,2.28
2023-03-27T09:44:28.139Z,1.75
2023-03-27T09:46:33.298Z,2.42
2023-03-27T09:48:50.625Z,3.47
2023-03-27T09:50:55.626Z,2.60
2023-03-27T09:53:11.950Z,3.08
2023-03-27T09:55:30.954Z,1.80
2023-03-27T09:57:38.842Z,2.00
2023-03-27T09:59:59.369Z,1.85
2023-03-27T10:02:20.129Z,2.00
2023-03-27T10:04:29.658Z,1.98
2023-03-27T10:06:41.617Z,2.22
2023-03-27T10:08:52.037Z,2.13
2023-03-27T10:11:00.403Z,1.63
2023-03-27T10:13:06.182Z,1.40
2023-03-27T10:15:30.859Z,1.65
2023-03-27T10:17:42.834Z,1.73
2023-03-27T10:19:55.275Z,2.20
2023-03-27T10:22:06.851Z,1.67
2023-03-27T10:24:29.253Z,1.60
2023-03-27T10:26:36.271Z,1.88
2023-03-27T10:28:41.777Z,1.65
2023-03-27T10:30:47.332Z,1.75
2023-03-27T10:32:53.171Z,1.60
2023-03-27T10:35:03.618Z,1.83
2023-03-27T10:37:23.535Z,1.60
2023-03-27T10:39:32.378Z,1.60
2023-03-27T10:41:39.724Z,1.30
2023-03-27T10:43:46.717Z,1.23
2023-03-27T10:45:56.611Z,1.23
2023-03-27T10:48:03.610Z,1.38
2023-03-27T10:50:16.722Z,1.25
2023-03-27T10:54:38.087Z,1.20
2023-03-27T10:56:54.432Z,3.35
2023-03-27T10:59:05.377Z,1.25
2023-03-27T11:01:18.372Z,1.33
2023-03-27T11:03:30.418Z,1.58
2023-03-27T11:05:42.841Z,1.40
2023-03-27T11:07:53.303Z,1.65
2023-03-27T11:10:06.322Z,1.80
2023-03-27T11:12:14.970Z,1.65
2023-03-27T11:14:24.755Z,2.00
2023-03-27T11:16:35.738Z,1.73
2023-03-27T11:18:46.131Z,1.33
2023-03-27T11:20:59.649Z,1.60
2023-03-27T11:23:08.917Z,1.52
2023-03-27T11:25:23.213Z,2.08
2023-03-27T11:27:33.946Z,1.65
2023-03-27T11:29:48.363Z,1.85
2023-03-27T11:31:56.726Z,1.20
2023-03-27T11:34:11.432Z,1.40
2023-03-27T11:36:37.809Z,1.45
2023-03-27T11:38:49.629Z,1.40
2023-03-27T11:40:54.526Z,1.63
2023-03-27T11:42:59.857Z,1.92
2023-03-27T11:45:09.472Z,1.63
2023-03-27T11:47:40.257Z,1.35
2023-03-27T11:49:58.120Z,1.50
2023-03-27T11:52:17.604Z,1.90
2023-03-27T11:54:43.361Z,1.42
2023-03-27T11:56:58.147Z,1.88
2023-03-27T11:59:19.396Z,2.25
2023-03-27T12:01:31.084Z,1.55
2023-03-27T12:04:07.111Z,1.27
2023-03-27T12:06:21.055Z,1.48
2023-03-27T12:08:36.209Z,1.23
2023-03-27T12:10:44.258Z,1.75
2023-03-27T12:13:08.781Z,1.77
2023-03-27T12:15:27.545Z,1.70
2023-03-27T12:17:58.288Z,1.67
2023-03-27T12:20:23.010Z,1.60
2023-03-27T12:22:42.016Z,1.55
2023-03-27T12:25:03.878Z,1.83
2023-03-27T12:27:32.981Z,1.90
2023-03-27T12:29:52.125Z,1.15
2023-03-27T12:32:13.644Z,2.33
2023-03-27T12:34:37.640Z,1.50
2023-03-27T12:36:48.460Z,1.52
2023-03-27T12:38:56.418Z,1.80
2023-03-27T12:41:16.980Z,1.95
2023-03-27T12:43:34.091Z,1.60
2023-03-27T12:45:51.109Z,2.10
2023-03-27T12:48:20.922Z,1.88
2023-03-27T12:50:30.339Z,1.63
2023-03-27T12:52:35.542Z,1.48
2023-03-27T12:54:45.242Z,2.40
2023-03-27T12:57:05.466Z,1.48
2023-03-27T12:59:22.686Z,1.83
2023-03-27T13:01:52.272Z,1.75
2023-03-27T13:04:14.902Z,1.58
2023-03-27T13:06:42.549Z,1.88
2023-03-27T13:09:05.874Z,1.73
2023-03-27T13:11:23.131Z,2.08
2023-03-27T13:14:01.720Z,1.55
2023-03-27T13:16:25.932Z,1.77
2023-03-27T13:18:49.319Z,1.83
2023-03-27T13:21:08.071Z,1.75
2023-03-27T13:23:25.297Z,1.77
2023-03-27T13:25:35.813Z,1.90
2023-03-27T13:27:59.742Z,2.20
2023-03-27T13:30:13.049Z,2.25
2023-03-27T13:40:05.234Z,1.73
2023-03-27T15:09:44.104Z,1.75
2023-03-27T15:12:16.811Z,2.00
2023-03-27T15:17:32.827Z,2.35
2023-03-27T15:20:00.664Z,2.22
2023-03-27T15:22:12.835Z,2.28
2023-03-27T15:24:23.106Z,1.52
2023-03-27T15:26:32.176Z,1.92
2023-03-27T15:28:43.047Z,1.30
2023-03-27T15:30:54.955Z,1.73
2023-03-27T15:33:04.630Z,1.75
2023-03-27T15:35:16.477Z,2.80
2023-03-27T15:37:24.011Z,1.30
2023-03-27T15:39:29.144Z,1.60
2023-03-27T15:41:45.548Z,2.10
2023-03-27T15:43:51.809Z,1.58
2023-03-27T15:46:06.317Z,1.50
2023-03-27T15:48:22.290Z,1.55
2023-03-27T15:50:28.222Z,1.70
2023-03-27T15:52:35.708Z,2.45
2023-03-27T15:54:58.729Z,1.60
2023-03-27T15:57:10.291Z,1.83
2023-03-27T15:59:25.403Z,1.33
2023-03-27T16:01:53.196Z,1.70
2023-03-27T16:04:15.067Z,1.80
2023-03-27T16:06:33.693Z,1.55
2023-03-27T16:08:43.775Z,1.40
2023-03-27T16:10:51.210Z,1.35
2023-03-27T16:13:03.363Z,1.70
2023-03-27T16:15:09.680Z,1.58
2023-03-27T16:17:25.748Z,1.67
2023-03-27T16:19:31.207Z,1.17
2023-03-27T16:21:40.307Z,1.60
2023-03-27T16:23:45.122Z,1.33
2023-03-27T16:25:50.106Z,1.80
2023-03-27T16:27:58.935Z,1.63
2023-03-27T16:30:04.636Z,1.77
2023-03-27T16:32:13.873Z,2.20
2023-03-27T16:34:21.746Z,1.85
2023-03-27T16:36:32.212Z,1.98
2023-03-27T16:38:43.862Z,1.88
2023-03-27T16:40:50.595Z,1.90
2023-03-27T16:42:55.766Z,1.70
2023-03-27T16:45:02.016Z,1.92
2023-03-27T16:47:07.600Z,1.27
2023-03-27T16:49:16.441Z,1.70
2023-03-27T16:51:26.944Z,1.63
2023-03-27T16:53:32.077Z,1.45
2023-03-27T16:55:40.228Z,1.50
2023-03-27T16:57:46.302Z,1.52
2023-03-27T16:59:52.205Z,1.30
2023-03-27T17:01:57.173Z,1.52
2023-03-27T17:04:02.099Z,1.40
2023-03-27T17:06:10.083Z,1.23
2023-03-27T17:08:21.338Z,1.42
2023-03-27T17:10:26.214Z,1.50
2023-03-27T17:12:33.165Z,1.67
2023-03-27T17:14:38.019Z,3.08
2023-03-27T17:16:44.944Z,1.60
2023-03-27T17:18:50.330Z,1.80
2023-03-27T17:20:55.733Z,1.67
2023-03-27T17:23:01.128Z,2.03
2023-03-27T17:25:18.724Z,2.33
2023-03-27T17:27:24.186Z,1.42
2023-03-27T17:29:29.585Z,2.90
2023-03-27T17:31:37.904Z,1.88
2023-03-27T17:33:42.722Z,1.83
2023-03-27T17:35:47.457Z,2.05
2023-03-27T17:37:52.729Z,1.45
2023-03-27T17:39:57.481Z,1.85
2023-03-27T17:42:05.006Z,1.65
2023-03-27T17:44:10.159Z,1.70
2023-03-27T17:46:16.707Z,1.42
2023-03-27T17:48:22.016Z,2.05
2023-03-27T17:50:30.012Z,1.88
2023-03-27T17:52:34.783Z,1.50
2023-03-27T17:54:48.914Z,1.30
2023-03-27T17:56:53.827Z,2.00
2023-03-27T17:59:01.782Z,2.13
2023-03-27T18:01:16.658Z,2.10
2023-03-27T18:03:24.502Z,2.03
2023-03-27T18:05:29.731Z,2.47
2023-03-27T18:07:34.815Z,2.00
2023-03-27T18:09:41.839Z,2.10
2023-03-27T18:11:47.291Z,1.90
2023-03-27T18:13:55.256Z,2.03
2023-03-27T18:16:06.930Z,1.83
2023-03-27T18:18:12.220Z,1.92
2023-03-27T18:20:17.105Z,2.28
2023-03-27T18:22:22.055Z,2.25
2023-03-27T18:24:35.896Z,1.65
2023-03-27T18:26:41.845Z,1.90
2023-03-27T18:28:46.718Z,2.55
2023-03-27T18:31:04.434Z,2.42
2023-03-27T18:33:11.397Z,2.00
2023-03-27T18:35:19.119Z,1.80
2023-03-27T18:37:24.694Z,1.90
2023-03-27T18:39:29.714Z,2.00
2023-03-27T18:41:35.709Z,1.90
2023-03-27T18:43:41.244Z,2.10
2023-03-27T18:45:47.383Z,1.80
2023-03-27T18:47:54.857Z,1.83
2023-03-27T18:50:00.004Z,2.00
2023-03-27T18:52:04.852Z,2.40
2023-03-27T18:54:10.175Z,1.88
2023-03-27T18:56:15.263Z,2.80
2023-03-27T18:58:20.186Z,1.88
2023-03-27T19:00:25.345Z,1.98
2023-03-27T19:02:30.186Z,2.10
2023-03-27T19:04:37.891Z,2.33
2023-03-27T19:06:42.802Z,1.85
2023-03-27T19:08:47.717Z,1.90
2023-03-27T19:10:52.680Z,1.80
2023-03-27T19:12:57.562Z,1.80
2023-03-27T19:15:13.276Z,1.58
2023-03-27T19:17:24.452Z,2.00
2023-03-27T19:19:30.968Z,2.15
2023-03-27T19:21:38.711Z,1.88
2023-03-27T19:23:43.925Z,1.88
2023-03-27T19:25:51.387Z,2.30
2023-03-27T19:27:57.720Z,2.00
2023-03-27T19:30:03.150Z,2.03
2023-03-27T19:32:08.186Z,2.20
2023-03-27T19:34:13.037Z,2.17
2023-03-27T19:36:17.776Z,1.55
2023-03-27T19:38:25.117Z,1.90
2023-03-27T19:40:30.240Z,1.83
2023-03-27T19:42:35.146Z,1.92
2023-03-27T19:44:40.366Z,1.65
2023-03-27T19:46:46.524Z,2.45
2023-03-27T19:48:52.364Z,3.25
2023-03-27T19:51:01.612Z,2.35
2023-03-27T19:53:09.321Z,2.20
2023-03-27T19:55:19.918Z,2.10
2023-03-27T19:57:24.834Z,1.67
2023-03-27T19:59:31.035Z,1.60
2023-03-27T20:01:37.865Z,1.73
2023-03-27T20:03:43.274Z,1.88
2023-03-27T20:05:50.253Z,2.55
2023-03-27T20:07:55.071Z,1.80
2023-03-27T20:09:59.890Z,2.08
2023-03-27T20:12:11.519Z,2.60
2023-03-27T20:14:20.492Z,1.65
2023-03-27T20:16:26.407Z,2.05
2023-03-27T20:18:34.478Z,2.30
2023-03-27T20:20:41.562Z,2.25
2023-03-27T20:22:56.999Z,1.73
2023-03-27T20:25:03.923Z,1.90
2023-03-27T20:27:12.393Z,2.53
2023-03-27T20:29:20.357Z,2.72
2023-03-27T20:31:27.302Z,2.20
2023-03-27T20:33:32.302Z,2.65
2023-03-27T20:35:38.000Z,2.38
2023-03-27T20:37:43.797Z,2.22
2023-03-27T20:39:48.637Z,2.65
2023-03-27T20:41:59.363Z,2.92
2023-03-27T20:44:15.973Z,3.40
2023-03-27T20:46:21.184Z,3.03
2023-03-27T20:48:26.853Z,3.63
2023-03-27T20:50:31.858Z,3.08
2023-03-27T20:52:36.885Z,3.05
2023-03-27T20:54:42.191Z,3.10
2023-03-27T20:56:47.208Z,3.47
2023-03-27T20:58:52.339Z,3.60
2023-03-27T21:01:03.908Z,2.85
2023-03-27T21:03:08.844Z,2.38
2023-03-27T21:05:13.732Z,2.72
2023-03-27T21:07:18.963Z,2.40
2023-03-27T21:09:24.368Z,2.20
2023-03-27T21:11:29.153Z,2.70
2023-03-27T21:13:34.475Z,2.17
2023-03-27T21:15:39.355Z,2.20
2023-03-27T21:17:48.146Z,2.45
2023-03-27T21:19:55.990Z,1.92
2023-03-27T21:24:50.954Z,2.78
2023-03-27T21:26:56.043Z,1.90
2023-03-27T21:29:06.722Z,2.30
2023-03-27T21:31:25.028Z,2.72
2023-03-27T21:34:31.560Z,3.25
2023-03-27T22:00:20.970Z,2.50
2023-03-27T22:32:39.547Z,2.30
